sensor_id;sensor_type;location;lat;lon;timestamp;pressure;altitude;pressure_sealevel;temperature;humidity
78835;BME280;68187;42.682;23.352;2023-04-16T00:02:28;94634.72;;;11.58;57.92
78835;BME280;68187;42.682;23.352;2023-04-16T00:04:55;94610.56;;;11.41;58.16
78835;BME280;68187;42.682;23.352;2023-04-16T00:07:22;94636.59;;;11.53;58.39
78835;BME280;68187;42.682;23.352;2023-04-16T00:09:50;94631.88;;;11.49;58.29
78835;BME280;68187;42.682;23.352;2023-04-16T00:12:17;94627.16;;;11.46;58.10
78835;BME280;68187;42.682;23.352;2023-04-16T00:14:43;94625.38;;;11.42;58.49
78835;BME280;68187;42.682;23.352;2023-04-16T00:17:10;94617.44;;;11.42;58.69
78835;BME280;68187;42.682;23.352;2023-04-16T00:19:37;94630.88;;;11.45;58.41
78835;BME280;68187;42.682;23.352;2023-04-16T00:22:04;94630.69;;;11.37;57.96
78835;BME280;68187;42.682;23.352;2023-04-16T00:24:30;94624.91;;;11.35;58.45
78835;BME280;68187;42.682;23.352;2023-04-16T00:26:58;94628.59;;;11.34;57.82
78835;BME280;68187;42.682;23.352;2023-04-16T00:29:25;94631.88;;;11.26;58.25
78835;BME280;68187;42.682;23.352;2023-04-16T00:31:53;94629.06;;;11.17;58.13
78835;BME280;68187;42.682;23.352;2023-04-16T00:34:19;94625.47;;;11.08;58.44
78835;BME280;68187;42.682;23.352;2023-04-16T00:36:46;94623.88;;;11.07;58.74
78835;BME280;68187;42.682;23.352;2023-04-16T00:39:13;94626.56;;;11.02;59.17
78835;BME280;68187;42.682;23.352;2023-04-16T00:41:39;94622.94;;;10.93;60.09
78835;BME280;68187;42.682;23.352;2023-04-16T00:44:08;94613.25;;;10.84;60.62
78835;BME280;68187;42.682;23.352;2023-04-16T00:46:35;94605.41;;;10.79;59.92
78835;BME280;68187;42.682;23.352;2023-04-16T00:49:03;94610.69;;;10.79;59.81
78835;BME280;68187;42.682;23.352;2023-04-16T00:51:30;94619.66;;;10.77;60.47
78835;BME280;68187;42.682;23.352;2023-04-16T00:53:57;94617.31;;;10.76;60.61
78835;BME280;68187;42.682;23.352;2023-04-16T00:56:24;94617.16;;;10.62;61.20
78835;BME280;68187;42.682;23.352;2023-04-16T00:58:51;94618.25;;;10.56;60.94
78835;BME280;68187;42.682;23.352;2023-04-16T01:01:19;94623.53;;;10.56;61.59
78835;BME280;68187;42.682;23.352;2023-04-16T01:03:47;94620.94;;;10.51;61.78
78835;BME280;68187;42.682;23.352;2023-04-16T01:06:15;94629.41;;;10.48;61.89
78835;BME280;68187;42.682;23.352;2023-04-16T01:08:43;94634.97;;;10.47;61.49
78835;BME280;68187;42.682;23.352;2023-04-16T01:11:10;94623.94;;;10.40;61.46
78835;BME280;68187;42.682;23.352;2023-04-16T01:13:37;94625.75;;;10.44;61.51
78835;BME280;68187;42.682;23.352;2023-04-16T01:16:05;94597.63;;;10.25;62.16
78835;BME280;68187;42.682;23.352;2023-04-16T01:18:33;94617.88;;;10.34;62.14
78835;BME280;68187;42.682;23.352;2023-04-16T01:21:02;94631.06;;;10.39;62.40
78835;BME280;68187;42.682;23.352;2023-04-16T01:23:29;94620.53;;;10.34;62.13
78835;BME280;68187;42.682;23.352;2023-04-16T01:25:56;94615.53;;;10.33;61.56
78835;BME280;68187;42.682;23.352;2023-04-16T01:28:22;94612.63;;;10.29;61.81
78835;BME280;68187;42.682;23.352;2023-04-16T01:30:49;94614.22;;;10.30;61.13
78835;BME280;68187;42.682;23.352;2023-04-16T01:33:17;94621.88;;;10.27;61.13
78835;BME280;68187;42.682;23.352;2023-04-16T01:35:44;94615.06;;;10.26;61.48
78835;BME280;68187;42.682;23.352;2023-04-16T01:38:12;94607.97;;;10.16;61.13
78835;BME280;68187;42.682;23.352;2023-04-16T01:40:39;94602.72;;;10.11;61.26
78835;BME280;68187;42.682;23.352;2023-04-16T01:43:05;94599.03;;;10.07;60.70
78835;BME280;68187;42.682;23.352;2023-04-16T01:45:33;94611.19;;;10.08;61.63
78835;BME280;68187;42.682;23.352;2023-04-16T01:48:00;94584.66;;;9.89;61.97
78835;BME280;68187;42.682;23.352;2023-04-16T01:50:28;94588.63;;;9.87;62.07
78835;BME280;68187;42.682;23.352;2023-04-16T01:52:55;94608.66;;;9.88;62.03
78835;BME280;68187;42.682;23.352;2023-04-16T01:55:23;94601.81;;;9.82;62.53
78835;BME280;68187;42.682;23.352;2023-04-16T01:57:51;94597.63;;;9.81;62.16
78835;BME280;68187;42.682;23.352;2023-04-16T02:00:17;94597.03;;;9.89;61.78
78835;BME280;68187;42.682;23.352;2023-04-16T02:02:44;94595.47;;;9.88;62.14
78835;BME280;68187;42.682;23.352;2023-04-16T02:05:11;94600.75;;;9.88;61.40
78835;BME280;68187;42.682;23.352;2023-04-16T02:07:38;94603.91;;;9.90;60.91
78835;BME280;68187;42.682;23.352;2023-04-16T02:10:05;94594.69;;;9.87;61.16
78835;BME280;68187;42.682;23.352;2023-04-16T02:12:35;94599.16;;;9.92;61.74
78835;BME280;68187;42.682;23.352;2023-04-16T02:15:04;94601.78;;;9.92;61.04
78835;BME280;68187;42.682;23.352;2023-04-16T02:17:30;94604.94;;;9.94;61.39
78835;BME280;68187;42.682;23.352;2023-04-16T02:19:57;94598.88;;;9.93;61.23
78835;BME280;68187;42.682;23.352;2023-04-16T02:22:24;94603.13;;;9.89;60.73
78835;BME280;68187;42.682;23.352;2023-04-16T02:24:50;94585.22;;;9.81;61.69
78835;BME280;68187;42.682;23.352;2023-04-16T02:27:17;94593.09;;;9.86;62.05
78835;BME280;68187;42.682;23.352;2023-04-16T02:29:45;94594.94;;;9.86;61.87
78835;BME280;68187;42.682;23.352;2023-04-16T02:32:12;94592.31;;;9.86;61.07
78835;BME280;68187;42.682;23.352;2023-04-16T02:34:39;94596.00;;;9.90;61.05
78835;BME280;68187;42.682;23.352;2023-04-16T02:37:06;94583.84;;;9.89;58.32
78835;BME280;68187;42.682;23.352;2023-04-16T02:39:33;94584.66;;;9.89;57.77
78835;BME280;68187;42.682;23.352;2023-04-16T02:42:00;94589.91;;;9.94;58.56
78835;BME280;68187;42.682;23.352;2023-04-16T02:44:27;94587.50;;;9.98;57.94
78835;BME280;68187;42.682;23.352;2023-04-16T02:46:55;94576.16;;;9.97;56.89
78835;BME280;68187;42.682;23.352;2023-04-16T02:49:22;94565.91;;;9.91;56.85
78835;BME280;68187;42.682;23.352;2023-04-16T02:51:48;94569.00;;;10.03;56.89
78835;BME280;68187;42.682;23.352;2023-04-16T02:54:15;94560.06;;;9.99;56.14
78835;BME280;68187;42.682;23.352;2023-04-16T02:56:42;94570.03;;;10.07;58.25
78835;BME280;68187;42.682;23.352;2023-04-16T02:59:08;94584.53;;;10.10;58.03
78835;BME280;68187;42.682;23.352;2023-04-16T03:01:35;94579.00;;;10.11;57.76
78835;BME280;68187;42.682;23.352;2023-04-16T03:04:03;94572.66;;;10.07;57.59
78835;BME280;68187;42.682;23.352;2023-04-16T03:06:30;94575.31;;;10.07;56.67
78835;BME280;68187;42.682;23.352;2023-04-16T03:08:57;94582.19;;;10.03;57.20
78835;BME280;68187;42.682;23.352;2023-04-16T03:11:24;94568.81;;;9.94;56.41
78835;BME280;68187;42.682;23.352;2023-04-16T03:13:50;94574.56;;;10.01;56.87
78835;BME280;68187;42.682;23.352;2023-04-16T03:16:18;94585.34;;;10.05;56.84
78835;BME280;68187;42.682;23.352;2023-04-16T03:18:44;94583.75;;;10.04;57.13
78835;BME280;68187;42.682;23.352;2023-04-16T03:21:13;94591.94;;;10.13;57.01
78835;BME280;68187;42.682;23.352;2023-04-16T03:23:39;94547.44;;;9.91;56.26
78835;BME280;68187;42.682;23.352;2023-04-16T03:26:06;94587.94;;;10.15;56.83
78835;BME280;68187;42.682;23.352;2023-04-16T03:28:33;94583.44;;;10.16;56.75
78835;BME280;68187;42.682;23.352;2023-04-16T03:30:59;94587.38;;;10.18;56.52
78835;BME280;68187;42.682;23.352;2023-04-16T03:33:26;94575.56;;;10.11;57.20
78835;BME280;68187;42.682;23.352;2023-04-16T03:35:56;94585.75;;;10.22;58.53
78835;BME280;68187;42.682;23.352;2023-04-16T03:38:24;94592.41;;;10.20;58.74
78835;BME280;68187;42.682;23.352;2023-04-16T03:40:51;94592.94;;;10.17;58.61
78835;BME280;68187;42.682;23.352;2023-04-16T03:43:18;94577.66;;;10.08;58.55
78835;BME280;68187;42.682;23.352;2023-04-16T03:45:45;94585.34;;;10.05;59.13
78835;BME280;68187;42.682;23.352;2023-04-16T03:48:12;94589.28;;;10.07;57.99
78835;BME280;68187;42.682;23.352;2023-04-16T03:50:39;94594.81;;;10.11;58.12
78835;BME280;68187;42.682;23.352;2023-04-16T03:53:05;94601.72;;;10.02;58.75
78835;BME280;68187;42.682;23.352;2023-04-16T03:55:34;94589.63;;;9.96;59.23
78835;BME280;68187;42.682;23.352;2023-04-16T03:58:00;94585.69;;;9.88;59.71
78835;BME280;68187;42.682;23.352;2023-04-16T04:00:29;94604.41;;;9.92;59.30
78835;BME280;68187;42.682;23.352;2023-04-16T04:02:56;94602.34;;;9.84;59.77
78835;BME280;68187;42.682;23.352;2023-04-16T04:05:22;94594.72;;;9.82;59.79
78835;BME280;68187;42.682;23.352;2023-04-16T04:07:49;94613.72;;;9.79;59.69
78835;BME280;68187;42.682;23.352;2023-04-16T04:10:16;94606.06;;;9.78;58.06
78835;BME280;68187;42.682;23.352;2023-04-16T04:12:44;94601.38;;;9.70;56.80
78835;BME280;68187;42.682;23.352;2023-04-16T04:15:11;94618.22;;;9.74;56.76
78835;BME280;68187;42.682;23.352;2023-04-16T04:17:37;94618.25;;;9.69;57.05
78835;BME280;68187;42.682;23.352;2023-04-16T04:20:05;94601.41;;;9.60;57.74
78835;BME280;68187;42.682;23.352;2023-04-16T04:22:32;94592.97;;;9.63;57.61
78835;BME280;68187;42.682;23.352;2023-04-16T04:24:59;94620.88;;;9.74;57.11
78835;BME280;68187;42.682;23.352;2023-04-16T04:27:25;94626.94;;;9.74;58.06
78835;BME280;68187;42.682;23.352;2023-04-16T04:29:54;94613.22;;;9.72;58.11
78835;BME280;68187;42.682;23.352;2023-04-16T04:32:20;94633.47;;;9.82;58.02
78835;BME280;68187;42.682;23.352;2023-04-16T04:34:47;94611.34;;;9.78;58.32
78835;BME280;68187;42.682;23.352;2023-04-16T04:37:14;94633.41;;;9.97;56.23
78835;BME280;68187;42.682;23.352;2023-04-16T04:39:40;94637.38;;;9.94;56.27
78835;BME280;68187;42.682;23.352;2023-04-16T04:42:07;94633.66;;;9.95;56.31
78835;BME280;68187;42.682;23.352;2023-04-16T04:44:34;94637.63;;;9.98;56.35
78835;BME280;68187;42.682;23.352;2023-04-16T04:47:02;94638.38;;;10.03;57.46
78835;BME280;68187;42.682;23.352;2023-04-16T04:49:29;94642.31;;;10.11;57.68
78835;BME280;68187;42.682;23.352;2023-04-16T04:51:56;94620.94;;;10.07;57.62
78835;BME280;68187;42.682;23.352;2023-04-16T04:54:22;94635.91;;;10.22;56.94
78835;BME280;68187;42.682;23.352;2023-04-16T04:56:49;94615.41;;;10.04;56.50
78835;BME280;68187;42.682;23.352;2023-04-16T04:59:16;94640.72;;;10.15;58.08
78835;BME280;68187;42.682;23.352;2023-04-16T05:01:43;94637.78;;;10.22;57.54
78835;BME280;68187;42.682;23.352;2023-04-16T05:04:11;94639.84;;;10.25;57.55
78835;BME280;68187;42.682;23.352;2023-04-16T05:06:38;94642.97;;;10.32;57.92
78835;BME280;68187;42.682;23.352;2023-04-16T05:09:05;94641.66;;;10.34;56.59
78835;BME280;68187;42.682;23.352;2023-04-16T05:11:36;94643.25;;;10.30;56.75
78835;BME280;68187;42.682;23.352;2023-04-16T05:14:02;94636.94;;;10.31;57.17
78835;BME280;68187;42.682;23.352;2023-04-16T05:16:29;94636.88;;;10.36;56.79
78835;BME280;68187;42.682;23.352;2023-04-16T05:18:56;94639.28;;;10.33;56.11
78835;BME280;68187;42.682;23.352;2023-04-16T05:21:24;94632.44;;;10.27;56.67
78835;BME280;68187;42.682;23.352;2023-04-16T05:23:51;94631.91;;;10.30;56.72
78835;BME280;68187;42.682;23.352;2023-04-16T05:26:18;94640.00;;;10.43;55.85
78835;BME280;68187;42.682;23.352;2023-04-16T05:28:45;94634.16;;;10.51;56.11
78835;BME280;68187;42.682;23.352;2023-04-16T05:31:11;94631.19;;;10.58;55.38
78835;BME280;68187;42.682;23.352;2023-04-16T05:33:38;94632.00;;;10.53;55.06
78835;BME280;68187;42.682;23.352;2023-04-16T05:36:05;94643.00;;;10.65;54.29
78835;BME280;68187;42.682;23.352;2023-04-16T05:38:33;94641.91;;;10.71;54.30
78835;BME280;68187;42.682;23.352;2023-04-16T05:41:00;94638.16;;;10.77;54.25
78835;BME280;68187;42.682;23.352;2023-04-16T05:43:27;94630.50;;;10.76;53.90
78835;BME280;68187;42.682;23.352;2023-04-16T05:45:53;94624.75;;;10.69;54.24
78835;BME280;68187;42.682;23.352;2023-04-16T05:48:20;94612.06;;;10.71;53.20
78835;BME280;68187;42.682;23.352;2023-04-16T05:50:48;94615.22;;;10.73;52.49
78835;BME280;68187;42.682;23.352;2023-04-16T05:53:15;94598.47;;;10.54;52.90
78835;BME280;68187;42.682;23.352;2023-04-16T05:55:44;94638.47;;;10.71;54.14
78835;BME280;68187;42.682;23.352;2023-04-16T05:58:11;94642.16;;;10.70;53.04
78835;BME280;68187;42.682;23.352;2023-04-16T06:00:38;94619.81;;;10.57;52.92
78835;BME280;68187;42.682;23.352;2023-04-16T06:03:05;94628.50;;;10.63;53.60
78835;BME280;68187;42.682;23.352;2023-04-16T06:05:31;94635.53;;;10.72;53.86
78835;BME280;68187;42.682;23.352;2023-04-16T06:07:58;94646.53;;;10.85;53.28
78835;BME280;68187;42.682;23.352;2023-04-16T06:10:25;94633.56;;;10.88;53.48
78835;BME280;68187;42.682;23.352;2023-04-16T06:12:53;94632.13;;;11.01;53.36
78835;BME280;68187;42.682;23.352;2023-04-16T06:15:20;94632.63;;;11.03;52.23
78835;BME280;68187;42.682;23.352;2023-04-16T06:17:48;94636.88;;;11.04;52.39
78835;BME280;68187;42.682;23.352;2023-04-16T06:20:15;94633.09;;;11.10;52.55
78835;BME280;68187;42.682;23.352;2023-04-16T06:22:41;94630.06;;;11.21;52.64
78835;BME280;68187;42.682;23.352;2023-04-16T06:25:08;94611.13;;;11.14;52.02
78835;BME280;68187;42.682;23.352;2023-04-16T06:27:35;94632.88;;;11.30;51.58
78835;BME280;68187;42.682;23.352;2023-04-16T06:30:04;94632.34;;;11.33;51.16
78835;BME280;68187;42.682;23.352;2023-04-16T06:32:31;94624.78;;;11.21;51.58
78835;BME280;68187;42.682;23.352;2023-04-16T06:34:58;94631.59;;;11.27;52.00
78835;BME280;68187;42.682;23.352;2023-04-16T06:37:25;94617.25;;;11.33;51.44
78835;BME280;68187;42.682;23.352;2023-04-16T06:39:51;94615.34;;;11.39;51.48
78835;BME280;68187;42.682;23.352;2023-04-16T06:42:19;94604.72;;;11.44;51.47
78835;BME280;68187;42.682;23.352;2023-04-16T06:44:45;94620.53;;;11.73;51.86
78835;BME280;68187;42.682;23.352;2023-04-16T06:47:14;94626.00;;;12.00;51.78
78835;BME280;68187;42.682;23.352;2023-04-16T06:49:41;94626.81;;;12.19;51.80
78835;BME280;68187;42.682;23.352;2023-04-16T06:52:08;94613.50;;;12.24;52.57
78835;BME280;68187;42.682;23.352;2023-04-16T06:54:35;94630.38;;;12.47;50.32
78835;BME280;68187;42.682;23.352;2023-04-16T06:57:01;94618.41;;;12.49;50.59
78835;BME280;68187;42.682;23.352;2023-04-16T06:59:28;94624.72;;;12.53;51.44
78835;BME280;68187;42.682;23.352;2023-04-16T07:01:55;94608.59;;;12.50;51.67
78835;BME280;68187;42.682;23.352;2023-04-16T07:04:23;94624.16;;;12.70;51.70
78835;BME280;68187;42.682;23.352;2023-04-16T07:06:50;94608.25;;;12.70;51.32
78835;BME280;68187;42.682;23.352;2023-04-16T07:09:17;94612.34;;;12.81;51.37
78835;BME280;68187;42.682;23.352;2023-04-16T07:11:43;94620.50;;;12.84;50.82
78835;BME280;68187;42.682;23.352;2023-04-16T07:14:10;94618.13;;;12.83;50.44
78835;BME280;68187;42.682;23.352;2023-04-16T07:16:37;94611.25;;;12.82;50.97
78835;BME280;68187;42.682;23.352;2023-04-16T07:19:04;94611.25;;;12.82;51.21
78835;BME280;68187;42.682;23.352;2023-04-16T07:21:33;94613.44;;;12.94;50.64
78835;BME280;68187;42.682;23.352;2023-04-16T07:23:59;94623.31;;;13.07;50.98
78835;BME280;68187;42.682;23.352;2023-04-16T07:26:26;94624.69;;;13.18;50.08
78835;BME280;68187;42.682;23.352;2023-04-16T07:28:53;94606.03;;;13.09;49.44
78835;BME280;68187;42.682;23.352;2023-04-16T07:31:19;94574.88;;;13.01;49.10
78835;BME280;68187;42.682;23.352;2023-04-16T07:33:46;94614.22;;;13.26;49.74
78835;BME280;68187;42.682;23.352;2023-04-16T07:36:13;94600.44;;;13.24;50.15
78835;BME280;68187;42.682;23.352;2023-04-16T07:38:41;94606.84;;;13.37;50.30
78835;BME280;68187;42.682;23.352;2023-04-16T07:41:08;94612.75;;;13.47;49.55
78835;BME280;68187;42.682;23.352;2023-04-16T07:43:35;94614.03;;;13.64;49.13
78835;BME280;68187;42.682;23.352;2023-04-16T07:46:01;94599.88;;;13.68;48.93
78835;BME280;68187;42.682;23.352;2023-04-16T07:48:28;94607.03;;;13.81;48.13
78835;BME280;68187;42.682;23.352;2023-04-16T07:50:55;94614.38;;;13.98;49.28
78835;BME280;68187;42.682;23.352;2023-04-16T07:53:21;94607.59;;;14.05;47.32
78835;BME280;68187;42.682;23.352;2023-04-16T07:55:51;94612.91;;;14.05;47.29
78835;BME280;68187;42.682;23.352;2023-04-16T07:58:18;94612.22;;;14.00;48.07
78835;BME280;68187;42.682;23.352;2023-04-16T08:00:44;94606.34;;;13.89;48.21
78835;BME280;68187;42.682;23.352;2023-04-16T08:03:11;94614.91;;;13.86;48.44
78835;BME280;68187;42.682;23.352;2023-04-16T08:05:40;94610.75;;;13.94;47.94
78835;BME280;68187;42.682;23.352;2023-04-16T08:08:06;94596.91;;;13.97;47.95
78835;BME280;68187;42.682;23.352;2023-04-16T08:10:33;94608.22;;;14.38;48.21
78835;BME280;68187;42.682;23.352;2023-04-16T08:13:01;94602.94;;;14.60;48.50
78835;BME280;68187;42.682;23.352;2023-04-16T08:15:28;94601.69;;;14.88;47.08
78835;BME280;68187;42.682;23.352;2023-04-16T08:17:55;94600.59;;;15.12;45.61
78835;BME280;68187;42.682;23.352;2023-04-16T08:20:22;94599.34;;;15.18;45.44
78835;BME280;68187;42.682;23.352;2023-04-16T08:22:48;94602.59;;;15.37;46.04
78835;BME280;68187;42.682;23.352;2023-04-16T08:25:15;94590.34;;;15.58;46.94
78835;BME280;68187;42.682;23.352;2023-04-16T08:27:42;94571.53;;;15.54;44.73
78835;BME280;68187;42.682;23.352;2023-04-16T08:30:10;94598.38;;;15.84;44.34
78835;BME280;68187;42.682;23.352;2023-04-16T08:32:37;94596.06;;;15.99;45.32
78835;BME280;68187;42.682;23.352;2023-04-16T08:35:05;94583.53;;;16.08;43.77
78835;BME280;68187;42.682;23.352;2023-04-16T08:37:32;94588.44;;;16.15;43.12
78835;BME280;68187;42.682;23.352;2023-04-16T08:39:58;94582.00;;;16.24;42.83
78835;BME280;68187;42.682;23.352;2023-04-16T08:42:30;94580.91;;;16.34;43.41
78835;BME280;68187;42.682;23.352;2023-04-16T08:45:05;94580.47;;;16.58;42.80
78835;BME280;68187;42.682;23.352;2023-04-16T08:47:34;94577.94;;;16.70;42.49
78835;BME280;68187;42.682;23.352;2023-04-16T08:50:02;94565.19;;;16.84;42.12
78835;BME280;68187;42.682;23.352;2023-04-16T08:52:30;94568.59;;;17.10;41.44
78835;BME280;68187;42.682;23.352;2023-04-16T08:55:03;94566.53;;;17.16;40.87
78835;BME280;68187;42.682;23.352;2023-04-16T08:57:37;94565.16;;;17.09;40.02
78835;BME280;68187;42.682;23.352;2023-04-16T09:00:06;94562.69;;;16.87;42.01
78835;BME280;68187;42.682;23.352;2023-04-16T09:02:36;94565.06;;;16.80;41.29
78835;BME280;68187;42.682;23.352;2023-04-16T09:05:04;94571.31;;;16.84;41.73
78835;BME280;68187;42.682;23.352;2023-04-16T09:07:33;94565.22;;;16.75;40.57
78835;BME280;68187;42.682;23.352;2023-04-16T09:10:00;94565.22;;;16.75;40.62
78835;BME280;68187;42.682;23.352;2023-04-16T09:12:26;94551.72;;;16.80;41.38
78835;BME280;68187;42.682;23.352;2023-04-16T09:14:55;94548.84;;;17.02;41.33
78835;BME280;68187;42.682;23.352;2023-04-16T09:17:24;94550.44;;;17.41;41.51
78835;BME280;68187;42.682;23.352;2023-04-16T09:19:52;94530.78;;;17.46;41.01
78835;BME280;68187;42.682;23.352;2023-04-16T09:22:19;94556.59;;;17.71;39.95
78835;BME280;68187;42.682;23.352;2023-04-16T09:24:46;94544.34;;;17.70;40.05
78835;BME280;68187;42.682;23.352;2023-04-16T09:27:13;94552.44;;;17.82;39.37
78835;BME280;68187;42.682;23.352;2023-04-16T09:29:41;94551.50;;;18.07;40.71
78835;BME280;68187;42.682;23.352;2023-04-16T09:32:09;94552.16;;;18.25;38.42
78835;BME280;68187;42.682;23.352;2023-04-16T09:34:55;94549.16;;;18.26;38.48
78835;BME280;68187;42.682;23.352;2023-04-16T09:37:23;94557.38;;;18.42;38.50
78835;BME280;68187;42.682;23.352;2023-04-16T09:39:55;94555.19;;;18.65;38.19
78835;BME280;68187;42.682;23.352;2023-04-16T09:42:23;94544.38;;;18.73;37.33
78835;BME280;68187;42.682;23.352;2023-04-16T09:44:52;94547.97;;;18.77;37.38
78835;BME280;68187;42.682;23.352;2023-04-16T09:47:19;94531.41;;;18.63;37.04
78835;BME280;68187;42.682;23.352;2023-04-16T09:49:45;94530.72;;;18.54;37.53
78835;BME280;68187;42.682;23.352;2023-04-16T09:52:14;94534.31;;;18.37;36.93
78835;BME280;68187;42.682;23.352;2023-04-16T09:54:45;94521.25;;;18.15;37.76
78835;BME280;68187;42.682;23.352;2023-04-16T09:57:12;94533.13;;;18.06;38.24
78835;BME280;68187;42.682;23.352;2023-04-16T09:59:39;94533.69;;;17.91;38.60
78835;BME280;68187;42.682;23.352;2023-04-16T10:02:07;94532.50;;;17.79;37.88
78835;BME280;68187;42.682;23.352;2023-04-16T10:04:44;94530.72;;;17.63;39.00
78835;BME280;68187;42.682;23.352;2023-04-16T10:07:11;94529.22;;;17.53;38.46
78835;BME280;68187;42.682;23.352;2023-04-16T10:09:40;94523.88;;;17.45;38.63
78835;BME280;68187;42.682;23.352;2023-04-16T10:12:07;94502.72;;;17.40;39.68
78835;BME280;68187;42.682;23.352;2023-04-16T10:14:35;94501.41;;;17.46;38.96
78835;BME280;68187;42.682;23.352;2023-04-16T10:17:03;94504.84;;;17.55;38.35
78835;BME280;68187;42.682;23.352;2023-04-16T10:19:31;94493.03;;;17.64;38.15
78835;BME280;68187;42.682;23.352;2023-04-16T10:21:58;94504.00;;;17.92;39.01
78835;BME280;68187;42.682;23.352;2023-04-16T10:24:25;94505.34;;;17.98;38.01
78835;BME280;68187;42.682;23.352;2023-04-16T10:26:53;94498.13;;;17.99;38.41
78835;BME280;68187;42.682;23.352;2023-04-16T10:29:21;94511.28;;;18.04;37.23
78835;BME280;68187;42.682;23.352;2023-04-16T10:31:48;94493.63;;;17.91;37.73
78835;BME280;68187;42.682;23.352;2023-04-16T10:34:17;94488.28;;;17.91;37.55
78835;BME280;68187;42.682;23.352;2023-04-16T10:36:47;94488.88;;;17.96;38.90
78835;BME280;68187;42.682;23.352;2023-04-16T10:39:16;94489.34;;;18.31;37.36
78835;BME280;68187;42.682;23.352;2023-04-16T10:41:43;94498.72;;;18.78;36.35
78835;BME280;68187;42.682;23.352;2023-04-16T10:44:12;94487.38;;;19.17;34.02
78835;BME280;68187;42.682;23.352;2023-04-16T10:46:40;94501.16;;;19.64;35.38
78835;BME280;68187;42.682;23.352;2023-04-16T10:49:14;94477.56;;;19.94;33.04
78835;BME280;68187;42.682;23.352;2023-04-16T10:51:51;94465.25;;;20.05;31.96
78835;BME280;68187;42.682;23.352;2023-04-16T10:54:21;94494.47;;;20.22;32.98
78835;BME280;68187;42.682;23.352;2023-04-16T10:56:49;94498.16;;;20.30;32.86
78835;BME280;68187;42.682;23.352;2023-04-16T10:59:19;94483.28;;;20.32;32.72
78835;BME280;68187;42.682;23.352;2023-04-16T11:01:49;94473.50;;;20.40;33.32
78835;BME280;68187;42.682;23.352;2023-04-16T11:04:27;94480.88;;;20.86;31.29
78835;BME280;68187;42.682;23.352;2023-04-16T11:07:01;94465.97;;;20.73;30.80
78835;BME280;68187;42.682;23.352;2023-04-16T11:09:51;94464.81;;;20.58;31.34
78835;BME280;68187;42.682;23.352;2023-04-16T11:12:18;94470.53;;;20.57;31.49
78835;BME280;68187;42.682;23.352;2023-04-16T11:14:48;94460.16;;;20.28;31.06
78835;BME280;68187;42.682;23.352;2023-04-16T11:17:15;94458.75;;;20.06;31.64
78835;BME280;68187;42.682;23.352;2023-04-16T11:19:43;94465.97;;;19.78;33.36
78835;BME280;68187;42.682;23.352;2023-04-16T11:22:11;94463.97;;;19.63;33.20
78835;BME280;68187;42.682;23.352;2023-04-16T11:24:39;94456.50;;;19.56;34.83
78835;BME280;68187;42.682;23.352;2023-04-16T11:27:06;94465.09;;;19.50;33.38
78835;BME280;68187;42.682;23.352;2023-04-16T11:29:32;94448.81;;;19.31;34.77
78835;BME280;68187;42.682;23.352;2023-04-16T11:32:01;94455.59;;;19.28;33.64
78835;BME280;68187;42.682;23.352;2023-04-16T11:34:27;94457.25;;;19.08;34.40
78835;BME280;68187;42.682;23.352;2023-04-16T11:36:54;94453.47;;;18.97;35.13
78835;BME280;68187;42.682;23.352;2023-04-16T11:39:21;94446.56;;;18.96;35.51
78835;BME280;68187;42.682;23.352;2023-04-16T11:41:50;94444.53;;;18.93;35.70
78835;BME280;68187;42.682;23.352;2023-04-16T11:44:18;94431.47;;;18.80;34.49
78835;BME280;68187;42.682;23.352;2023-04-16T11:46:45;94429.69;;;18.72;36.73
78835;BME280;68187;42.682;23.352;2023-04-16T11:49:14;94405.00;;;18.54;35.48
78835;BME280;68187;42.682;23.352;2023-04-16T11:51:42;94440.25;;;18.68;36.12
78835;BME280;68187;42.682;23.352;2023-04-16T11:54:17;94403.84;;;18.43;36.05
78835;BME280;68187;42.682;23.352;2023-04-16T11:56:45;94435.38;;;18.70;35.56
78835;BME280;68187;42.682;23.352;2023-04-16T11:59:15;94426.34;;;18.75;36.51
78835;BME280;68187;42.682;23.352;2023-04-16T12:01:45;94421.00;;;18.87;35.25
78835;BME280;68187;42.682;23.352;2023-04-16T12:04:15;94396.16;;;18.98;36.24
78835;BME280;68187;42.682;23.352;2023-04-16T12:07:06;94405.97;;;19.31;35.06
78835;BME280;68187;42.682;23.352;2023-04-16T12:09:33;94409.72;;;19.54;34.50
78835;BME280;68187;42.682;23.352;2023-04-16T12:12:00;94402.25;;;19.59;33.63
78835;BME280;68187;42.682;23.352;2023-04-16T12:14:28;94399.34;;;19.64;33.39
78835;BME280;68187;42.682;23.352;2023-04-16T12:16:55;94383.84;;;19.58;32.95
78835;BME280;68187;42.682;23.352;2023-04-16T12:19:23;94391.97;;;19.73;33.41
78835;BME280;68187;42.682;23.352;2023-04-16T12:21:50;94382.56;;;19.79;32.75
78835;BME280;68187;42.682;23.352;2023-04-16T12:24:19;94384.44;;;19.79;32.95
78835;BME280;68187;42.682;23.352;2023-04-16T12:26:52;94382.56;;;19.79;33.28
78835;BME280;68187;42.682;23.352;2023-04-16T12:29:22;94386.25;;;19.75;33.72
78835;BME280;68187;42.682;23.352;2023-04-16T12:31:51;94355.84;;;19.55;33.85
78835;BME280;68187;42.682;23.352;2023-04-16T12:34:18;94379.94;;;19.55;33.44
78835;BME280;68187;42.682;23.352;2023-04-16T12:36:48;94381.53;;;19.44;33.98
78835;BME280;68187;42.682;23.352;2023-04-16T12:39:28;94373.63;;;19.23;34.63
78835;BME280;68187;42.682;23.352;2023-04-16T12:41:55;94354.56;;;19.01;34.65
78835;BME280;68187;42.682;23.352;2023-04-16T12:44:21;94365.03;;;18.94;35.18
78835;BME280;68187;42.682;23.352;2023-04-16T12:46:48;94350.31;;;18.64;35.52
78835;BME280;68187;42.682;23.352;2023-04-16T12:49:15;94371.06;;;18.67;36.63
78835;BME280;68187;42.682;23.352;2023-04-16T12:51:41;94366.75;;;18.41;36.53
78835;BME280;68187;42.682;23.352;2023-04-16T12:54:09;94378.00;;;18.35;37.30
78835;BME280;68187;42.682;23.352;2023-04-16T12:56:36;94373.94;;;18.29;38.28